createdAt,value
2023-05-13T00:00:27.053Z,95650.00
2023-05-13T00:01:27.085Z,95648.00
2023-05-13T00:02:26.250Z,95650.00
2023-05-13T00:03:27.318Z,95652.00
2023-05-13T00:04:27.200Z,95648.00
2023-05-13T00:05:26.231Z,95646.00
2023-05-13T00:06:26.264Z,95648.00
2023-05-13T00:07:27.248Z,95646.00
2023-05-13T00:08:26.287Z,95650.00
2023-05-13T00:09:27.340Z,95650.00
2023-05-13T00:10:27.326Z,95650.00
2023-05-13T00:11:27.407Z,95650.00
2023-05-13T00:12:27.339Z,95650.00
2023-05-13T00:13:27.366Z,95652.00
2023-05-13T00:14:27.422Z,95660.00
2023-05-13T00:15:26.483Z,95652.00
2023-05-13T00:16:26.564Z,95660.00
2023-05-13T00:17:26.563Z,95652.00
2023-05-13T00:18:27.678Z,95652.00
2023-05-13T00:19:27.677Z,95650.00
2023-05-13T00:20:27.698Z,95652.00
2023-05-13T00:21:27.782Z,95650.00
2023-05-13T00:22:27.745Z,95650.00
2023-05-13T00:23:27.766Z,95650.00
2023-05-13T00:24:27.779Z,95650.00
2023-05-13T00:25:27.807Z,95652.00
2023-05-13T00:26:26.901Z,95662.00
2023-05-13T00:27:27.897Z,95660.00
2023-05-13T00:28:26.907Z,95664.00
2023-05-13T00:29:26.971Z,95662.00
2023-05-13T00:30:26.976Z,95662.00
2023-05-13T00:31:27.047Z,95662.00
2023-05-13T00:32:27.096Z,95664.00
2023-05-13T00:33:28.097Z,95660.00
2023-05-13T00:34:28.125Z,95664.00
2023-05-13T00:35:28.135Z,95664.00
2023-05-13T00:36:27.158Z,95664.00
2023-05-13T00:37:27.172Z,95664.00
2023-05-13T00:38:27.253Z,95664.00
2023-05-13T00:39:28.279Z,95664.00
2023-05-13T00:40:28.293Z,95664.00
2023-05-13T00:41:27.338Z,95666.00
2023-05-13T00:42:28.372Z,95666.00
2023-05-13T00:43:27.428Z,95664.00
2023-05-13T00:44:27.438Z,95664.00
2023-05-13T00:45:28.426Z,95666.00
2023-05-13T00:46:28.586Z,95664.00
2023-05-13T00:47:28.524Z,95664.00
2023-05-13T00:48:27.546Z,95666.00
2023-05-13T00:49:27.586Z,95664.00
2023-05-13T00:50:28.590Z,95662.00
2023-05-13T00:51:27.628Z,95662.00
2023-05-13T00:52:28.681Z,95660.00
2023-05-13T00:53:27.716Z,95664.00
2023-05-13T00:54:28.719Z,95666.00
2023-05-13T00:55:28.806Z,95666.00
2023-05-13T00:56:28.810Z,95670.00
2023-05-13T00:57:28.867Z,95666.00
2023-05-13T00:58:28.879Z,95666.00
2023-05-13T00:59:27.927Z,95668.00
2023-05-13T01:00:28.950Z,95670.00
2023-05-13T01:01:29.124Z,95666.00
2023-05-13T01:02:29.128Z,95668.00
2023-05-13T01:03:28.054Z,95668.00
2023-05-13T01:04:28.057Z,95672.00
2023-05-13T01:05:29.078Z,95670.00
2023-05-13T01:06:29.085Z,95670.00
2023-05-13T01:07:29.142Z,95670.00
2023-05-13T01:08:29.150Z,95670.00
2023-05-13T01:09:29.163Z,95672.00
2023-05-13T01:10:28.168Z,95670.00
2023-05-13T01:11:29.159Z,95672.00
2023-05-13T01:12:29.183Z,95672.00
2023-05-13T01:13:29.220Z,95668.00
2023-05-13T01:14:29.212Z,95672.00
2023-05-13T01:15:29.318Z,95672.00
2023-05-13T01:16:29.313Z,95672.00
2023-05-13T01:17:29.336Z,95672.00
2023-05-13T01:18:28.486Z,95672.00
2023-05-13T01:19:29.368Z,95672.00
2023-05-13T01:20:28.353Z,95670.00
2023-05-13T01:21:29.432Z,95674.00
2023-05-13T01:22:29.486Z,95674.00
2023-05-13T01:23:29.548Z,95672.00
2023-05-13T01:24:29.640Z,95674.00
2023-05-13T01:25:28.575Z,95674.00
2023-05-13T01:26:28.609Z,95674.00
2023-05-13T01:27:28.650Z,95674.00
2023-05-13T01:28:29.649Z,95676.00
2023-05-13T01:29:29.657Z,95676.00
2023-05-13T01:30:28.709Z,95676.00
2023-05-13T01:31:28.755Z,95674.00
2023-05-13T01:32:29.772Z,95678.00
2023-05-13T01:33:28.717Z,95680.00
2023-05-13T01:34:29.728Z,95678.00
2023-05-13T01:35:29.736Z,95680.00
2023-05-13T01:36:28.760Z,95680.00
2023-05-13T01:37:29.756Z,95680.00
2023-05-13T01:38:29.754Z,95682.00
2023-05-13T01:39:29.809Z,95680.00
2023-05-13T01:40:32.709Z,95682.00
2023-05-13T01:41:29.879Z,95680.00
2023-05-13T01:42:28.862Z,95682.00
2023-05-13T01:43:28.793Z,95680.00
2023-05-13T01:44:28.794Z,95684.00
2023-05-13T01:45:28.805Z,95680.00
2023-05-13T01:46:28.832Z,95682.00
2023-05-13T01:47:29.832Z,95684.00
2023-05-13T01:48:29.800Z,95684.00
2023-05-13T01:49:29.749Z,95686.00
2023-05-13T01:50:28.740Z,95686.00
2023-05-13T01:51:29.751Z,95684.00
2023-05-13T01:52:29.747Z,95682.00
2023-05-13T01:53:28.727Z,95686.00
2023-05-13T01:54:29.770Z,95686.00
2023-05-13T01:55:29.700Z,95688.00
2023-05-13T01:56:29.692Z,95686.00
2023-05-13T01:57:29.711Z,95690.00
2023-05-13T01:58:28.686Z,95688.00
2023-05-13T01:59:29.684Z,95686.00
2023-05-13T02:00:29.698Z,95688.00
2023-05-13T02:01:29.775Z,95690.00
2023-05-13T02:02:29.675Z,95688.00
2023-05-13T02:03:29.770Z,95688.00
2023-05-13T02:04:28.632Z,95691.00
2023-05-13T02:05:29.636Z,95686.00
2023-05-13T02:06:29.684Z,95686.00
2023-05-13T02:07:29.694Z,95686.00
2023-05-13T02:08:29.694Z,95684.00
2023-05-13T02:09:29.732Z,95684.00
2023-05-13T02:10:28.770Z,95688.00
2023-05-13T02:11:29.834Z,95688.00
2023-05-13T02:12:29.840Z,95688.00
2023-05-13T02:13:29.894Z,95690.00
2023-05-13T02:14:29.884Z,95688.00
2023-05-13T02:15:29.896Z,95688.00
2023-05-13T02:16:29.958Z,95691.00
2023-05-13T02:17:30.037Z,95688.00
2023-05-13T02:18:30.057Z,95693.00
2023-05-13T02:19:30.083Z,95690.00
2023-05-13T02:20:29.040Z,95690.00
2023-05-13T02:21:30.093Z,95686.00
2023-05-13T02:22:30.153Z,95691.00
2023-05-13T02:23:29.165Z,95688.00
2023-05-13T02:24:30.196Z,95688.00
2023-05-13T02:25:30.229Z,95690.00
2023-05-13T02:26:30.224Z,95691.00
2023-05-13T02:27:30.273Z,95690.00
2023-05-13T02:28:30.256Z,95693.00
2023-05-13T02:29:30.266Z,95693.00
2023-05-13T02:30:30.302Z,95691.00
2023-05-13T02:31:29.367Z,95693.00
2023-05-13T02:32:30.413Z,95690.00
2023-05-13T02:33:29.323Z,95690.00
2023-05-13T02:34:30.345Z,95691.00
2023-05-13T02:35:30.392Z,95688.00
2023-05-13T02:36:29.439Z,95690.00
2023-05-13T02:37:29.470Z,95691.00
2023-05-13T02:38:30.469Z,95691.00
2023-05-13T02:39:29.491Z,95690.00
2023-05-13T02:40:29.578Z,95691.00
2023-05-13T02:41:29.591Z,95691.00
2023-05-13T02:42:30.670Z,95690.00
2023-05-13T02:43:29.638Z,95690.00
2023-05-13T02:44:30.667Z,95691.00
2023-05-13T02:45:30.654Z,95688.00
2023-05-13T02:46:29.735Z,95688.00
2023-05-13T02:47:30.727Z,95690.00
2023-05-13T02:48:29.751Z,95691.00
2023-05-13T02:49:30.747Z,95686.00
2023-05-13T02:50:29.752Z,95690.00
2023-05-13T02:51:29.783Z,95690.00
2023-05-13T02:52:29.779Z,95690.00
2023-05-13T02:53:29.797Z,95693.00
2023-05-13T02:54:29.829Z,95693.00
2023-05-13T02:55:29.903Z,95691.00
2023-05-13T02:56:30.892Z,95690.00
2023-05-13T02:57:30.887Z,95690.00
2023-05-13T02:58:29.930Z,95690.00
2023-05-13T02:59:30.943Z,95691.00
2023-05-13T03:00:30.041Z,95690.00
2023-05-13T03:01:31.021Z,95688.00
2023-05-13T03:02:30.114Z,95688.00
2023-05-13T03:03:30.250Z,95688.00
2023-05-13T03:04:31.109Z,95690.00
2023-05-13T03:05:31.162Z,95688.00
2023-05-13T03:06:31.235Z,95686.00
2023-05-13T03:07:30.268Z,95688.00
2023-05-13T03:08:30.306Z,95690.00
2023-05-13T03:09:31.350Z,95690.00
2023-05-13T03:10:31.437Z,95690.00
2023-05-13T03:11:31.460Z,95691.00
2023-05-13T03:12:31.495Z,95691.00
2023-05-13T03:13:31.555Z,95691.00
2023-05-13T03:14:30.555Z,95691.00
2023-05-13T03:15:30.618Z,95691.00
2023-05-13T03:16:31.672Z,95693.00
2023-05-13T03:17:31.656Z,95691.00
2023-05-13T03:18:30.806Z,95693.00
2023-05-13T03:19:31.672Z,95691.00
2023-05-13T03:20:31.740Z,95693.00
2023-05-13T03:21:31.779Z,95693.00
2023-05-13T03:22:30.825Z,95695.00
2023-05-13T03:23:30.858Z,95695.00
2023-05-13T03:24:31.816Z,95699.00
2023-05-13T03:25:31.853Z,95695.00
2023-05-13T03:26:31.902Z,95697.00
2023-05-13T03:27:30.960Z,95697.00
2023-05-13T03:28:32.009Z,95695.00
2023-05-13T03:29:32.085Z,95697.00
2023-05-13T03:30:32.089Z,95699.00
2023-05-13T03:31:32.126Z,95695.00
2023-05-13T03:32:32.200Z,95697.00
2023-05-13T03:33:31.200Z,95697.00
2023-05-13T03:34:31.224Z,95695.00
2023-05-13T03:35:31.320Z,95697.00
2023-05-13T03:36:32.315Z,95701.00
2023-05-13T03:37:32.312Z,95701.00
2023-05-13T03:38:32.353Z,95701.00
2023-05-13T03:39:32.487Z,95703.00
2023-05-13T03:40:31.444Z,95703.00
2023-05-13T03:41:32.482Z,95703.00
2023-05-13T03:42:31.565Z,95703.00
2023-05-13T03:43:32.575Z,95703.00
2023-05-13T03:44:31.562Z,95703.00
2023-05-13T03:45:32.606Z,95701.00
2023-05-13T03:46:31.630Z,95705.00
2023-05-13T03:47:31.711Z,95703.00
2023-05-13T03:48:31.796Z,95705.00
2023-05-13T03:49:32.750Z,95707.00
2023-05-13T03:50:32.806Z,95707.00
2023-05-13T03:51:32.842Z,95709.00
2023-05-13T03:52:32.883Z,95711.00
2023-05-13T03:53:31.943Z,95711.00
2023-05-13T03:54:33.014Z,95713.00
2023-05-13T03:55:33.128Z,95713.00
2023-05-13T03:56:31.981Z,95713.00
2023-05-13T03:57:31.988Z,95713.00
2023-05-13T03:58:33.007Z,95715.00
2023-05-13T03:59:33.023Z,95717.00
2023-05-13T04:00:32.078Z,95715.00
2023-05-13T04:01:32.090Z,95715.00
2023-05-13T04:02:33.213Z,95719.00
2023-05-13T04:03:33.168Z,95719.00
2023-05-13T04:04:32.184Z,95719.00
2023-05-13T04:05:32.287Z,95719.00
2023-05-13T04:06:33.262Z,95713.00
2023-05-13T04:07:33.275Z,95717.00
2023-05-13T04:08:32.384Z,95719.00
2023-05-13T04:09:33.354Z,95721.00
2023-05-13T04:10:32.385Z,95721.00
2023-05-13T04:11:33.422Z,95721.00
2023-05-13T04:12:33.485Z,95723.00
2023-05-13T04:13:32.508Z,95723.00
2023-05-13T04:14:33.514Z,95723.00
2023-05-13T04:15:33.546Z,95719.00
2023-05-13T04:16:32.551Z,95723.00
2023-05-13T04:17:32.592Z,95725.00
2023-05-13T04:18:33.711Z,95721.00
2023-05-13T04:19:32.670Z,95725.00
2023-05-13T04:20:33.707Z,95727.00
2023-05-13T04:21:33.740Z,95727.00
2023-05-13T04:22:32.755Z,95723.00
2023-05-13T04:23:33.787Z,95727.00
2023-05-13T04:24:33.874Z,95725.00
2023-05-13T04:25:33.876Z,95727.00
2023-05-13T04:26:32.925Z,95729.00
2023-05-13T04:27:32.967Z,95731.00
2023-05-13T04:28:33.961Z,95731.00
2023-05-13T04:29:33.968Z,95731.00
2023-05-13T04:30:34.037Z,95733.00
2023-05-13T04:31:34.016Z,95735.00
2023-05-13T04:32:34.035Z,95737.00
2023-05-13T04:33:34.064Z,95735.00
2023-05-13T04:34:34.110Z,95737.00
2023-05-13T04:35:33.262Z,95739.00
2023-05-13T04:36:33.242Z,95741.00
2023-05-13T04:37:33.190Z,95737.00
2023-05-13T04:38:34.276Z,95741.00
2023-05-13T04:39:33.253Z,95741.00
2023-05-13T04:40:34.322Z,95741.00
2023-05-13T04:41:34.271Z,95745.00
2023-05-13T04:42:33.327Z,95743.00
2023-05-13T04:43:33.373Z,95743.00
2023-05-13T04:44:34.412Z,95745.00
2023-05-13T04:45:34.429Z,95745.00
2023-05-13T04:46:33.530Z,95743.00
2023-05-13T04:47:34.556Z,95748.00
2023-05-13T04:48:33.581Z,95745.00
2023-05-13T04:49:34.552Z,95746.00
2023-05-13T04:50:34.567Z,95750.00
2023-05-13T04:51:33.562Z,95750.00
2023-05-13T04:52:34.607Z,95748.00
2023-05-13T04:53:34.631Z,95746.00
2023-05-13T04:54:33.734Z,95746.00
2023-05-13T04:55:33.707Z,95745.00
2023-05-13T04:56:33.715Z,95748.00
2023-05-13T04:57:34.736Z,95746.00
2023-05-13T04:58:34.759Z,95746.00
2023-05-13T04:59:33.775Z,95750.00
2023-05-13T05:00:33.884Z,95748.00
2023-05-13T05:01:34.907Z,95750.00
2023-05-13T05:02:33.905Z,95752.00
2023-05-13T05:03:34.995Z,95754.00
2023-05-13T05:04:34.926Z,95756.00
2023-05-13T05:05:33.983Z,95756.00
2023-05-13T05:06:34.086Z,95758.00
2023-05-13T05:07:34.065Z,95758.00
2023-05-13T05:08:34.113Z,95760.00
2023-05-13T05:09:34.163Z,95760.00
2023-05-13T05:10:35.175Z,95760.00
2023-05-13T05:11:35.216Z,95762.00
2023-05-13T05:12:34.270Z,95766.00
2023-05-13T05:13:34.241Z,95766.00
2023-05-13T05:14:34.242Z,95766.00
2023-05-13T05:15:35.298Z,95766.00
2023-05-13T05:16:35.287Z,95768.00
2023-05-13T05:17:35.502Z,95768.00
2023-05-13T05:18:34.521Z,95768.00
2023-05-13T05:19:35.472Z,95766.00
2023-05-13T05:20:34.498Z,95766.00
2023-05-13T05:21:35.551Z,95768.00
2023-05-13T05:22:35.559Z,95768.00
2023-05-13T05:23:35.646Z,95768.00
2023-05-13T05:24:34.617Z,95768.00
2023-05-13T05:25:34.671Z,95770.00
2023-05-13T05:26:34.685Z,95770.00
2023-05-13T05:27:34.694Z,95768.00
2023-05-13T05:28:35.705Z,95770.00
2023-05-13T05:29:35.749Z,95770.00
2023-05-13T05:30:34.810Z,95774.00
2023-05-13T05:31:34.902Z,95772.00
2023-05-13T05:32:34.893Z,95770.00
2023-05-13T05:33:35.935Z,95768.00
2023-05-13T05:34:35.946Z,95768.00
2023-05-13T05:35:34.986Z,95770.00
2023-05-13T05:36:37.373Z,95768.00
2023-05-13T05:37:34.952Z,95772.00
2023-05-13T05:38:35.974Z,95774.00
2023-05-13T05:39:34.940Z,95776.00
2023-05-13T05:40:34.941Z,95778.00
2023-05-13T05:41:35.919Z,95780.00
2023-05-13T05:42:35.942Z,95776.00
2023-05-13T05:43:35.912Z,95778.00
2023-05-13T05:44:34.894Z,95782.00
2023-05-13T05:45:35.917Z,95782.00
2023-05-13T05:46:34.918Z,95780.00
2023-05-13T05:47:34.941Z,95782.00
2023-05-13T05:48:35.056Z,95786.00
2023-05-13T05:49:34.859Z,95784.00
2023-05-13T05:50:35.856Z,95788.00
2023-05-13T05:51:35.863Z,95788.00
2023-05-13T05:52:35.848Z,95786.00
2023-05-13T05:53:34.830Z,95786.00
2023-05-13T05:54:35.882Z,95784.00
2023-05-13T05:55:35.828Z,95786.00
2023-05-13T05:56:34.834Z,95784.00
2023-05-13T05:57:34.817Z,95782.00
2023-05-13T05:58:35.807Z,95784.00
2023-05-13T05:59:34.787Z,95782.00
2023-05-13T06:00:34.848Z,95782.00
2023-05-13T06:01:35.827Z,95784.00
2023-05-13T06:02:35.851Z,95784.00
2023-05-13T06:03:35.833Z,95786.00
2023-05-13T06:04:35.801Z,95786.00
2023-05-13T06:05:35.755Z,95782.00
2023-05-13T06:06:35.827Z,95784.00
2023-05-13T06:07:34.790Z,95782.00
2023-05-13T06:08:35.792Z,95788.00
2023-05-13T06:09:35.802Z,95782.00
2023-05-13T06:10:35.843Z,95786.00
2023-05-13T06:11:34.820Z,95786.00
2023-05-13T06:12:35.879Z,95784.00
2023-05-13T06:13:35.853Z,95788.00
2023-05-13T06:14:35.866Z,95790.00
2023-05-13T06:15:35.970Z,95788.00
2023-05-13T06:16:35.989Z,95788.00
2023-05-13T06:17:35.011Z,95790.00
2023-05-13T06:18:36.177Z,95792.00
2023-05-13T06:19:36.072Z,95792.00
2023-05-13T06:20:36.114Z,95792.00
2023-05-13T06:21:35.113Z,95790.00
2023-05-13T06:22:36.130Z,95792.00
2023-05-13T06:23:35.138Z,95790.00
2023-05-13T06:24:36.228Z,95792.00
2023-05-13T06:25:35.182Z,95792.00
2023-05-13T06:26:35.204Z,95792.00
2023-05-13T06:27:36.261Z,95792.00
2023-05-13T06:28:35.321Z,95792.00
2023-05-13T06:29:35.378Z,95792.00
2023-05-13T06:30:35.436Z,95792.00
2023-05-13T06:31:35.438Z,95793.00
2023-05-13T06:32:36.636Z,95793.00
2023-05-13T06:33:36.622Z,95795.00
2023-05-13T06:34:35.518Z,95793.00
2023-05-13T06:35:36.550Z,95797.00
2023-05-13T06:36:36.586Z,95795.00
2023-05-13T06:37:36.565Z,95795.00
2023-05-13T06:38:36.695Z,95795.00
2023-05-13T06:39:36.674Z,95795.00
2023-05-13T06:40:36.678Z,95793.00
2023-05-13T06:41:36.719Z,95793.00
2023-05-13T06:42:36.715Z,95793.00
2023-05-13T06:43:35.725Z,95795.00
2023-05-13T06:44:36.731Z,95795.00
2023-05-13T06:45:36.717Z,95795.00
2023-05-13T06:46:35.858Z,95793.00
2023-05-13T06:47:35.861Z,95793.00
2023-05-13T06:48:35.827Z,95795.00
2023-05-13T06:49:36.862Z,95795.00
2023-05-13T06:50:36.848Z,95795.00
2023-05-13T06:51:35.859Z,95797.00
2023-05-13T06:52:35.884Z,95799.00
2023-05-13T06:53:36.839Z,95799.00
2023-05-13T06:54:36.857Z,95799.00
2023-05-13T06:55:36.889Z,95799.00
2023-05-13T06:56:35.946Z,95801.00
2023-05-13T06:57:43.086Z,95797.00
2023-05-13T06:58:37.028Z,95801.00
2023-05-13T06:59:36.966Z,95801.00
2023-05-13T07:00:36.961Z,95801.00
2023-05-13T07:01:36.094Z,95797.00
2023-05-13T07:02:35.955Z,95797.00
2023-05-13T07:03:36.953Z,95797.00
2023-05-13T07:04:36.963Z,95801.00
2023-05-13T07:05:36.904Z,95799.00
2023-05-13T07:06:35.934Z,95799.00
2023-05-13T07:07:36.991Z,95795.00
2023-05-13T07:08:36.877Z,95799.00
2023-05-13T07:09:35.893Z,95801.00
2023-05-13T07:10:36.911Z,95799.00
2023-05-13T07:11:36.868Z,95799.00
2023-05-13T07:12:35.865Z,95801.00
2023-05-13T07:13:35.852Z,95801.00
2023-05-13T07:14:36.858Z,95805.00
2023-05-13T07:15:36.840Z,95803.00
2023-05-13T07:16:36.870Z,95803.00
2023-05-13T07:17:37.035Z,95803.00
2023-05-13T07:18:36.884Z,95799.00
2023-05-13T07:19:35.825Z,95801.00
2023-05-13T07:20:35.831Z,95801.00
2023-05-13T07:21:35.803Z,95801.00
2023-05-13T07:22:35.846Z,95801.00
2023-05-13T07:23:35.808Z,95803.00
2023-05-13T07:24:36.800Z,95801.00
2023-05-13T07:25:36.799Z,95801.00
2023-05-13T07:26:35.766Z,95805.00
2023-05-13T07:27:35.776Z,95803.00
2023-05-13T07:28:35.801Z,95801.00
2023-05-13T07:29:36.755Z,95801.00
2023-05-13T07:30:35.760Z,95803.00
2023-05-13T07:31:36.739Z,95801.00
2023-05-13T07:32:36.380Z,95799.00
2023-05-13T07:33:35.799Z,95797.00
2023-05-13T07:34:36.861Z,95799.00
2023-05-13T07:35:35.846Z,95795.00
2023-05-13T07:36:36.870Z,95793.00
2023-05-13T07:37:35.864Z,95793.00
2023-05-13T07:38:36.924Z,95793.00
2023-05-13T07:39:37.008Z,95795.00
2023-05-13T07:40:36.058Z,95793.00
2023-05-13T07:41:37.043Z,95797.00
2023-05-13T07:42:37.089Z,95793.00
2023-05-13T07:43:36.077Z,95795.00
2023-05-13T07:44:36.131Z,95793.00
2023-05-13T07:45:36.185Z,95793.00
2023-05-13T07:46:37.235Z,95795.00
2023-05-13T07:47:36.268Z,95793.00
2023-05-13T07:48:37.292Z,95792.00
2023-05-13T07:49:36.314Z,95795.00
2023-05-13T07:50:36.348Z,95792.00
2023-05-13T07:51:37.425Z,95795.00
2023-05-13T07:52:36.530Z,95793.00
2023-05-13T07:53:37.518Z,95792.00
2023-05-13T07:54:37.550Z,95790.00
2023-05-13T07:55:36.586Z,95788.00
2023-05-13T07:56:37.600Z,95788.00
2023-05-13T07:57:36.613Z,95788.00
2023-05-13T07:58:37.645Z,95786.00
2023-05-13T07:59:37.671Z,95788.00
2023-05-13T08:00:36.706Z,95788.00
2023-05-13T08:01:36.753Z,95788.00
2023-05-13T08:02:37.907Z,95788.00
2023-05-13T08:03:37.063Z,95786.00
2023-05-13T08:04:37.945Z,95790.00
2023-05-13T08:05:36.891Z,95788.00
2023-05-13T08:06:37.914Z,95788.00
2023-05-13T08:07:37.927Z,95784.00
2023-05-13T08:08:37.030Z,95786.00
2023-05-13T08:09:38.034Z,95786.00
2023-05-13T08:10:37.024Z,95784.00
2023-05-13T08:11:38.069Z,95784.00
2023-05-13T08:12:38.076Z,95786.00
2023-05-13T08:13:37.098Z,95778.00
2023-05-13T08:14:37.157Z,95784.00
2023-05-13T08:15:37.191Z,95782.00
2023-05-13T08:16:37.309Z,95780.00
2023-05-13T08:17:37.306Z,95780.00
2023-05-13T08:18:38.285Z,95778.00
2023-05-13T08:19:37.299Z,95782.00
2023-05-13T08:20:38.348Z,95778.00
2023-05-13T08:21:38.334Z,95780.00
2023-05-13T08:22:37.376Z,95780.00
2023-05-13T08:23:45.592Z,95782.00
2023-05-13T08:24:38.356Z,95780.00
2023-05-13T08:25:37.338Z,95782.00
2023-05-13T08:26:38.384Z,95782.00
2023-05-13T08:27:38.366Z,95778.00
2023-05-13T08:28:38.332Z,95780.00
2023-05-13T08:29:37.336Z,95776.00
2023-05-13T08:30:37.308Z,95780.00
2023-05-13T08:31:37.367Z,95778.00
2023-05-13T08:32:37.372Z,95776.00
2023-05-13T08:33:37.281Z,95776.00
2023-05-13T08:34:38.298Z,95774.00
2023-05-13T08:35:38.275Z,95776.00
2023-05-13T08:36:38.266Z,95776.00
2023-05-13T08:37:38.254Z,95776.00
2023-05-13T08:38:37.284Z,95776.00
2023-05-13T08:39:38.243Z,95778.00
2023-05-13T08:40:38.238Z,95782.00
2023-05-13T08:41:38.235Z,95778.00
2023-05-13T08:42:37.261Z,95780.00
2023-05-13T08:43:37.320Z,95776.00
2023-05-13T08:44:37.356Z,95782.00
2023-05-13T08:45:37.511Z,95778.00
2023-05-13T08:46:37.426Z,95780.00
2023-05-13T08:47:38.507Z,95782.00
2023-05-13T08:48:37.454Z,95780.00
2023-05-13T08:49:38.440Z,95780.00
2023-05-13T08:50:38.547Z,95776.00
2023-05-13T08:51:37.535Z,95774.00
2023-05-13T08:52:37.569Z,95776.00
2023-05-13T08:53:37.616Z,95776.00
2023-05-13T08:54:38.649Z,95776.00
2023-05-13T08:55:38.702Z,95774.00
2023-05-13T08:56:38.667Z,95774.00
2023-05-13T08:57:38.683Z,95770.00
2023-05-13T08:58:38.734Z,95768.00
2023-05-13T08:59:38.800Z,95766.00
2023-05-13T09:00:38.797Z,95770.00
2023-05-13T09:01:38.932Z,95766.00
2023-05-13T09:02:38.868Z,95764.00
2023-05-13T09:03:38.877Z,95764.00
2023-05-13T09:04:38.924Z,95760.00
2023-05-13T09:05:39.256Z,95766.00
2023-05-13T09:06:38.961Z,95764.00
2023-05-13T09:07:39.047Z,95762.00
2023-05-13T09:08:38.041Z,95764.00
2023-05-13T09:09:39.050Z,95764.00
2023-05-13T09:10:39.094Z,95762.00
2023-05-13T09:11:38.138Z,95760.00
2023-05-13T09:12:38.189Z,95760.00
2023-05-13T09:13:39.250Z,95760.00
2023-05-13T09:14:39.246Z,95758.00
2023-05-13T09:15:38.335Z,95756.00
2023-05-13T09:16:39.330Z,95756.00
2023-05-13T09:17:38.349Z,95758.00
2023-05-13T09:18:39.546Z,95758.00
2023-05-13T09:19:39.516Z,95758.00
2023-05-13T09:20:38.313Z,95756.00
2023-05-13T09:21:39.351Z,95758.00
2023-05-13T09:22:38.423Z,95760.00
2023-05-13T09:23:38.422Z,95756.00
2023-05-13T09:24:39.443Z,95754.00
2023-05-13T09:25:38.559Z,95752.00
2023-05-13T09:26:39.522Z,95750.00
2023-05-13T09:27:38.565Z,95752.00
2023-05-13T09:28:38.616Z,95752.00
2023-05-13T09:29:38.659Z,95748.00
2023-05-13T09:30:38.722Z,95746.00
2023-05-13T09:31:39.873Z,95752.00
2023-05-13T09:32:39.790Z,95750.00
2023-05-13T09:33:39.742Z,95750.00
2023-05-13T09:34:39.789Z,95750.00
2023-05-13T09:35:38.817Z,95748.00
2023-05-13T09:36:38.889Z,95746.00
2023-05-13T09:37:38.847Z,95750.00
2023-05-13T09:38:39.859Z,95750.00
2023-05-13T09:39:38.876Z,95748.00
2023-05-13T09:40:39.927Z,95746.00
2023-05-13T09:41:38.932Z,95745.00
2023-05-13T09:42:40.019Z,95743.00
2023-05-13T09:43:40.036Z,95743.00
2023-05-13T09:44:40.032Z,95741.00
2023-05-13T09:45:39.041Z,95743.00
2023-05-13T09:46:40.049Z,95743.00
2023-05-13T09:47:40.150Z,95743.00
2023-05-13T09:48:40.186Z,95739.00
2023-05-13T09:49:40.167Z,95739.00
2023-05-13T09:50:39.208Z,95735.00
2023-05-13T09:51:40.231Z,95735.00
2023-05-13T09:52:40.265Z,95735.00
2023-05-13T09:53:39.329Z,95735.00
2023-05-13T09:54:39.383Z,95733.00
2023-05-13T09:55:40.351Z,95729.00
2023-05-13T09:56:40.338Z,95731.00
2023-05-13T09:57:39.394Z,95729.00
2023-05-13T09:58:39.396Z,95727.00
2023-05-13T09:59:40.420Z,95727.00
2023-05-13T10:00:40.698Z,95727.00
2023-05-13T10:01:39.540Z,95725.00
2023-05-13T10:02:40.513Z,95727.00
2023-05-13T10:03:39.540Z,95727.00
2023-05-13T10:04:40.548Z,95727.00
2023-05-13T10:05:39.589Z,95723.00
2023-05-13T10:06:39.661Z,95725.00
2023-05-13T10:07:40.676Z,95721.00
2023-05-13T10:08:40.696Z,95721.00
2023-05-13T10:09:40.780Z,95723.00
2023-05-13T10:10:40.746Z,95723.00
2023-05-13T10:11:40.763Z,95723.00
2023-05-13T10:12:39.880Z,95727.00
2023-05-13T10:13:40.863Z,95719.00
2023-05-13T10:14:40.857Z,95721.00
2023-05-13T10:15:40.908Z,95721.00
2023-05-13T10:16:39.975Z,95719.00
2023-05-13T10:17:40.017Z,95717.00
2023-05-13T10:18:40.000Z,95717.00
2023-05-13T10:19:41.049Z,95719.00
2023-05-13T10:20:41.073Z,95717.00
2023-05-13T10:21:41.099Z,95721.00
2023-05-13T10:22:41.144Z,95717.00
2023-05-13T10:23:40.212Z,95715.00
2023-05-13T10:24:40.264Z,95717.00
2023-05-13T10:25:41.290Z,95717.00
2023-05-13T10:26:41.284Z,95713.00
2023-05-13T10:27:41.322Z,95711.00
2023-05-13T10:28:41.276Z,95713.00
2023-05-13T10:29:41.347Z,95713.00
2023-05-13T10:30:41.327Z,95715.00
2023-05-13T10:31:41.398Z,95715.00
2023-05-13T10:32:40.444Z,95715.00
2023-05-13T10:33:41.419Z,95717.00
2023-05-13T10:34:41.450Z,95717.00
2023-05-13T10:35:42.934Z,95719.00
2023-05-13T10:36:41.460Z,95723.00
2023-05-13T10:37:41.437Z,95723.00
2023-05-13T10:38:41.432Z,95721.00
2023-05-13T10:39:41.427Z,95717.00
2023-05-13T10:40:41.470Z,95719.00
2023-05-13T10:41:41.477Z,95717.00
2023-05-13T10:42:41.414Z,95713.00
2023-05-13T10:43:40.404Z,95717.00
2023-05-13T10:44:41.407Z,95713.00
2023-05-13T10:45:41.414Z,95713.00
2023-05-13T10:46:40.392Z,95711.00
2023-05-13T10:47:40.530Z,95711.00
2023-05-13T10:48:40.409Z,95713.00
2023-05-13T10:49:41.382Z,95715.00
2023-05-13T10:50:41.384Z,95713.00
2023-05-13T10:51:41.580Z,95711.00
2023-05-13T10:52:40.350Z,95715.00
2023-05-13T10:53:41.436Z,95713.00
2023-05-13T10:54:41.324Z,95713.00
2023-05-13T10:55:40.320Z,95711.00
2023-05-13T10:56:41.321Z,95707.00
2023-05-13T10:57:40.293Z,95703.00
2023-05-13T10:58:41.318Z,95703.00
2023-05-13T10:59:40.333Z,95703.00
2023-05-13T11:00:40.278Z,95703.00
2023-05-13T11:01:41.310Z,95699.00
2023-05-13T11:02:40.343Z,95697.00
2023-05-13T11:03:41.458Z,95699.00
2023-05-13T11:04:41.256Z,95703.00
2023-05-13T11:05:41.278Z,95703.00
2023-05-13T11:06:40.242Z,95707.00
2023-05-13T11:07:40.267Z,95707.00
2023-05-13T11:08:41.238Z,95705.00
2023-05-13T11:09:40.224Z,95707.00
2023-05-13T11:10:41.219Z,95709.00
2023-05-13T11:11:40.287Z,95705.00
2023-05-13T11:12:41.231Z,95707.00
2023-05-13T11:13:40.203Z,95705.00
2023-05-13T11:14:40.200Z,95703.00
2023-05-13T11:15:40.218Z,95705.00
2023-05-13T11:16:40.215Z,95705.00
2023-05-13T11:17:41.212Z,95703.00
2023-05-13T11:18:41.214Z,95705.00
2023-05-13T11:19:41.196Z,95701.00
2023-05-13T11:20:51.501Z,95707.00
2023-05-13T11:21:41.297Z,95703.00
2023-05-13T11:22:41.232Z,95705.00
2023-05-13T11:23:41.242Z,95705.00
2023-05-13T11:24:41.251Z,95705.00
2023-05-13T11:25:41.213Z,95703.00
2023-05-13T11:26:41.265Z,95703.00
2023-05-13T11:27:41.227Z,95701.00
2023-05-13T11:28:40.195Z,95701.00
2023-05-13T11:29:40.170Z,95701.00
2023-05-13T11:30:41.234Z,95703.00
2023-05-13T11:31:40.234Z,95701.00
2023-05-13T11:32:40.197Z,95699.00
2023-05-13T11:33:41.178Z,95703.00
2023-05-13T11:34:40.234Z,95701.00
2023-05-13T11:35:40.261Z,95703.00
2023-05-13T11:36:41.336Z,95703.00
2023-05-13T11:37:40.317Z,95703.00
2023-05-13T11:38:40.359Z,95701.00
2023-05-13T11:39:41.401Z,95695.00
2023-05-13T11:40:40.415Z,95699.00
2023-05-13T11:41:41.518Z,95703.00
2023-05-13T11:42:40.587Z,95701.00
2023-05-13T11:43:40.564Z,95703.00
2023-05-13T11:44:40.616Z,95697.00